»·PEaware :: UAL227 KSFO-KLAS

UAL227 :: KSFO-KLAS

FLIGHT INFORMATION

Flight Status: Arrived
Operator:
United Airlines
More flights by this operator :: More flights under this callsign
Pilot: Pratham R. (19019)
Aircraft: BOEING 737-800
(B738)
More flights by this aircraft type
Origin: KSFO San Francisco Intl
United States
Destination: KLAS McCarran Intl
United States
More flights between these airports :: More routes between these airports
Route: SSTIK3 NTELL Q162 ESSAA BTY SUNST4
File this flight plan on PilotEdge
Remarks: PBN / A1B1C1D1S1S2 DOF / 180611 REG / 0227 EET / KZLA0038 OPR / UAL PER / C RMK / TCAS SIMBRIEF
Altitude:
(Current/Filed)
37,000ft
Speed:
(Current/Filed)
461kts
Departed: 11-Jun-18 12:45 PM
Arrived: 11-Jun-18 01:49 PM
Distance/Time
Traveled:
359nm/1:04
Distance/Time
To Go:
Arrived

Flight Plot

Page will automatically refresh every two minutes.

Flight plan parsing failed; only flown route is shown


Map Options




Map Legend


Flown Route
Filed Route
Departure Airport
Arrival Airport
Navaid (VOR, NDB)
Fix

Horizontal Profiles

Position Reports

Time Latitude Longitude Heading Altitude Ground
Speed
11-Jun-18 12:11 37.612636 -122.384669 6 31ft 0kts
11-Jun-18 12:12 37.612636 -122.384669 6 31ft 0kts
11-Jun-18 12:13 37.612636 -122.384669 6 31ft 0kts
11-Jun-18 12:14 37.612636 -122.384669 6 31ft 0kts
11-Jun-18 12:15 37.612636 -122.384669 6 31ft 0kts
11-Jun-18 12:16 37.612636 -122.384669 6 31ft 0kts
11-Jun-18 12:17 37.612636 -122.384669 6 31ft 0kts
11-Jun-18 12:18 37.612636 -122.384669 6 31ft 0kts
11-Jun-18 12:19 37.612636 -122.384669 6 31ft 0kts
11-Jun-18 12:20 37.612636 -122.384669 6 31ft 0kts
11-Jun-18 12:21 37.612636 -122.384669 6 31ft 0kts
11-Jun-18 12:22 37.612636 -122.384669 6 31ft 0kts
11-Jun-18 12:23 37.612636 -122.384669 6 31ft 0kts
11-Jun-18 12:24 37.612636 -122.384669 6 31ft 0kts
11-Jun-18 12:25 37.612636 -122.384669 6 31ft 0kts
11-Jun-18 12:26 37.612636 -122.384669 6 31ft 0kts
11-Jun-18 12:27 37.612636 -122.384669 6 31ft 0kts
11-Jun-18 12:28 37.612636 -122.384669 6 31ft 0kts
11-Jun-18 12:29 37.612636 -122.384669 6 31ft 0kts
11-Jun-18 12:30 37.612636 -122.384669 6 31ft 0kts
11-Jun-18 12:31 37.612636 -122.384669 6 31ft 0kts
11-Jun-18 12:32 37.612636 -122.384669 6 31ft 0kts
11-Jun-18 12:33 37.612636 -122.384669 6 31ft 0kts
11-Jun-18 12:34 37.612636 -122.384669 6 31ft 0kts
11-Jun-18 12:35 37.612631 -122.384669 6 31ft 0kts
11-Jun-18 12:36 37.612059 -122.384749 6 31ft 2kts
11-Jun-18 12:37 37.611467 -122.384830 6 31ft 2kts
11-Jun-18 12:38 37.611240 -122.385121 72 31ft 0kts
11-Jun-18 12:39 37.611240 -122.385120 72 31ft 0kts
11-Jun-18 12:40 37.611240 -122.385120 72 31ft 0kts
11-Jun-18 12:41 37.611240 -122.385120 72 31ft 0kts
11-Jun-18 12:42 37.611310 -122.383828 114 31ft 9kts
11-Jun-18 12:43 37.609640 -122.384196 178 31ft 4kts
11-Jun-18 12:44 37.608944 -122.382248 33 29ft 10kts
11-Jun-18 12:45 37.638593 -122.362306 21 1413ft 188kts
11-Jun-18 12:46 37.692690 -122.372697 308 3722ft 249kts
11-Jun-18 12:47 37.666124 -122.441570 196 7134ft 283kts
11-Jun-18 12:48 37.589783 -122.453462 186 10328ft 299kts
11-Jun-18 12:49 37.497515 -122.461509 162 11886ft 375kts
11-Jun-18 12:50 37.425069 -122.368396 124 15145ft 397kts
11-Jun-18 12:51 37.387646 -122.237622 100 18417ft 419kts
11-Jun-18 12:52 37.365679 -122.116742 103 20924ft 439kts
11-Jun-18 12:53 37.337566 -121.973178 103 23559ft 459kts
11-Jun-18 12:54 37.306003 -121.815063 104 26124ft 479kts
11-Jun-18 12:55 37.272771 -121.650578 105 28527ft 496kts
11-Jun-18 12:56 37.238788 -121.483923 105 31464ft 492kts
11-Jun-18 12:57 37.206050 -121.324715 107 34089ft 485kts
11-Jun-18 12:58 37.172522 -121.162832 107 36377ft 479kts
11-Jun-18 12:59 37.138898 -121.001892 107 37004ft 474kts
11-Jun-18 13:00 37.105302 -120.842377 107 37005ft 475kts
11-Jun-18 13:01 37.071777 -120.684351 107 37000ft 470kts
11-Jun-18 13:02 37.038252 -120.527525 107 37000ft 468kts
11-Jun-18 13:03 37.004544 -120.370971 107 37004ft 464kts
11-Jun-18 13:04 36.972303 -120.222123 107 37006ft 461kts
11-Jun-18 13:05 36.938713 -120.068086 107 37006ft 460kts
11-Jun-18 13:06 36.911823 -119.912023 88 37016ft 464kts
11-Jun-18 13:07 36.944665 -119.755754 68 37001ft 468kts
11-Jun-18 13:08 36.992719 -119.604943 68 37000ft 471kts
11-Jun-18 13:09 37.041500 -119.452208 68 37001ft 475kts
11-Jun-18 13:10 37.090341 -119.299790 68 36996ft 479kts
11-Jun-18 13:11 37.140080 -119.145228 67 37120ft 482kts
11-Jun-18 13:12 37.190287 -118.989679 67 37222ft 482kts
11-Jun-18 13:13 37.240725 -118.833875 67 37197ft 481kts
11-Jun-18 13:14 37.282597 -118.675749 83 37182ft 482kts
11-Jun-18 13:15 37.297095 -118.508976 84 37057ft 481kts
11-Jun-18 13:16 37.311284 -118.345162 84 37058ft 482kts
11-Jun-18 13:17 37.326059 -118.178612 84 37053ft 481kts
11-Jun-18 13:18 37.341038 -118.011851 84 37054ft 482kts
11-Jun-18 13:19 37.349062 -117.845054 97 37075ft 478kts
11-Jun-18 13:20 37.333088 -117.679307 98 37055ft 479kts
11-Jun-18 13:21 37.317608 -117.513285 98 37084ft 479kts
11-Jun-18 13:22 37.300776 -117.348154 108 37141ft 476kts
11-Jun-18 13:23 37.234704 -117.208695 130 37154ft 467kts
11-Jun-18 13:24 37.156622 -117.079689 131 37153ft 466kts
11-Jun-18 13:25 37.076761 -116.951646 140 37140ft 460kts
11-Jun-18 13:26 36.972067 -116.868225 153 36862ft 449kts
11-Jun-18 13:27 36.865810 -116.794083 153 34917ft 447kts
11-Jun-18 13:28 36.767370 -116.702478 133 32119ft 450kts
11-Jun-18 13:29 36.684616 -116.584086 133 29634ft 460kts
11-Jun-18 13:30 36.600225 -116.463770 133 27068ft 465kts
11-Jun-18 13:31 36.515305 -116.343290 133 24237ft 470kts
11-Jun-18 13:32 36.428933 -116.221298 133 23990ft 475kts
11-Jun-18 13:33 36.342989 -116.100352 133 22629ft 462kts
11-Jun-18 13:34 36.260563 -115.984819 133 19593ft 439kts
11-Jun-18 13:35 36.191103 -115.874816 114 16382ft 382kts
11-Jun-18 13:36 36.156204 -115.765872 113 16099ft 323kts
11-Jun-18 13:37 36.122259 -115.659675 113 13974ft 338kts
11-Jun-18 13:38 36.090040 -115.559305 113 12820ft 309kts
11-Jun-18 13:39 36.059053 -115.463291 113 11881ft 285kts
11-Jun-18 13:40 36.030539 -115.374883 109 11075ft 276kts
11-Jun-18 13:41 36.022475 -115.282501 96 9996ft 278kts
11-Jun-18 13:42 36.016507 -115.192101 95 9016ft 265kts
11-Jun-18 13:43 36.011532 -115.114642 95 8235ft 239kts
11-Jun-18 13:44 36.006574 -115.033813 93 7051ft 236kts
11-Jun-18 13:45 36.028060 -114.963941 23 5525ft 238kts
11-Jun-18 13:46 36.087399 -114.983062 301 3941ft 237kts
11-Jun-18 13:47 36.074073 -115.050419 254 3169ft 190kts
11-Jun-18 13:48 36.073543 -115.103581 269 2333ft 148kts
11-Jun-18 13:49 36.073739 -115.143312 276 2094ft 24kts
11-Jun-18 13:50 36.076070 -115.146587 357 2104ft 14kts
11-Jun-18 13:51 36.079209 -115.147435 340 2100ft 3kts
11-Jun-18 13:52 36.079582 -115.147557 4 2099ft 0kts
11-Jun-18 13:53 36.079900 -115.147070 64 2096ft 0kts
11-Jun-18 13:54 36.079900 -115.147070 64 2096ft 0kts
11-Jun-18 13:55 36.079900 -115.147070 64 2096ft 0kts
11-Jun-18 13:56 36.079900 -115.147070 64 2096ft 0kts
11-Jun-18 13:57 36.079900 -115.147070 64 2096ft 0kts
11-Jun-18 13:58 36.079900 -115.147070 64 2096ft 0kts
11-Jun-18 13:59 36.079900 -115.147070 64 2096ft 0kts

Navigation Log

Ident Type
Flight plan parsing failed, navigation log unavailable